createdAt,value
2022-10-02T00:01:37.189Z,12.50
2022-10-02T00:04:14.572Z,12.50
2022-10-02T00:06:47.833Z,12.50
2022-10-02T00:09:24.648Z,12.50
2022-10-02T00:11:58.812Z,12.50
2022-10-02T00:14:31.446Z,12.50
2022-10-02T00:17:02.362Z,12.50
2022-10-02T00:19:30.382Z,12.50
2022-10-02T00:22:17.428Z,12.50
2022-10-02T00:24:51.664Z,12.40
2022-10-02T00:27:40.636Z,12.40
2022-10-02T00:30:13.910Z,12.30
2022-10-02T00:32:51.923Z,12.30
2022-10-02T00:35:48.545Z,12.30
2022-10-02T00:38:31.823Z,12.30
2022-10-02T00:41:27.028Z,12.30
2022-10-02T00:44:09.750Z,12.30
2022-10-02T00:46:47.296Z,12.30
2022-10-02T00:49:37.268Z,12.30
2022-10-02T00:52:24.574Z,12.30
2022-10-02T00:55:12.784Z,12.30
2022-10-02T00:57:53.667Z,12.30
2022-10-02T01:00:24.096Z,12.20
2022-10-02T01:03:11.432Z,12.20
2022-10-02T01:05:40.150Z,12.30
2022-10-02T01:08:09.348Z,12.30
2022-10-02T01:10:39.157Z,12.30
2022-10-02T01:13:07.794Z,12.30
2022-10-02T01:15:41.304Z,12.30
2022-10-02T01:18:14.908Z,12.40
2022-10-02T01:20:46.114Z,12.30
2022-10-02T01:23:21.236Z,12.30
2022-10-02T01:25:52.920Z,12.30
2022-10-02T01:28:22.540Z,12.30
2022-10-02T01:30:56.477Z,12.30
2022-10-02T01:33:24.869Z,12.30
2022-10-02T01:35:52.932Z,12.30
2022-10-02T01:38:25.799Z,12.20
2022-10-02T01:40:55.190Z,12.20
2022-10-02T01:43:27.563Z,12.30
2022-10-02T01:46:22.156Z,12.30
2022-10-02T01:49:04.380Z,12.30
2022-10-02T01:51:50.446Z,12.30
2022-10-02T01:54:27.660Z,12.40
2022-10-02T01:57:04.598Z,12.30
2022-10-02T01:59:46.559Z,12.30
2022-10-02T02:02:23.010Z,12.30
2022-10-02T02:04:58.151Z,12.30
2022-10-02T02:07:35.614Z,12.40
2022-10-02T02:10:11.652Z,12.40
2022-10-02T02:12:44.469Z,12.30
2022-10-02T02:15:18.864Z,12.40
2022-10-02T02:17:51.790Z,12.30
2022-10-02T02:20:28.515Z,12.30
2022-10-02T02:23:02.720Z,12.40
2022-10-02T02:25:34.842Z,12.40
2022-10-02T02:28:08.254Z,12.40
2022-10-02T02:30:39.552Z,12.40
2022-10-02T02:33:11.721Z,12.40
2022-10-02T02:35:44.545Z,12.40
2022-10-02T02:38:17.619Z,12.40
2022-10-02T02:40:47.291Z,12.40
2022-10-02T02:43:20.626Z,12.40
2022-10-02T02:45:53.136Z,12.30
2022-10-02T02:48:26.506Z,12.30
2022-10-02T02:50:59.416Z,12.30
2022-10-02T02:53:33.148Z,12.30
2022-10-02T02:56:04.767Z,12.30
2022-10-02T02:58:38.641Z,12.30
2022-10-02T03:01:07.210Z,12.30
2022-10-02T03:03:37.473Z,12.20
2022-10-02T03:06:23.741Z,12.20
2022-10-02T03:08:53.789Z,12.30
2022-10-02T03:11:33.836Z,12.20
2022-10-02T03:14:39.045Z,12.30
2022-10-02T03:17:19.799Z,12.20
2022-10-02T03:19:52.451Z,12.30
2022-10-02T03:22:31.514Z,12.20
2022-10-02T03:25:09.642Z,12.20
2022-10-02T03:27:41.972Z,12.20
2022-10-02T03:30:13.878Z,12.20
2022-10-02T03:32:44.832Z,12.30
2022-10-02T03:35:14.188Z,12.30
2022-10-02T03:37:46.362Z,12.20
2022-10-02T03:40:14.526Z,12.30
2022-10-02T03:42:43.002Z,12.30
2022-10-02T03:45:23.215Z,12.20
2022-10-02T03:48:00.873Z,12.30
2022-10-02T03:50:31.732Z,12.30
2022-10-02T03:53:11.979Z,12.30
2022-10-02T03:55:42.922Z,12.30
2022-10-02T03:58:14.368Z,12.30
2022-10-02T04:00:51.047Z,12.30
2022-10-02T04:03:23.779Z,12.30
2022-10-02T04:05:55.522Z,12.30
2022-10-02T04:08:28.998Z,12.40
2022-10-02T04:11:05.100Z,12.40
2022-10-02T04:13:37.768Z,12.40
2022-10-02T04:16:12.930Z,12.40
2022-10-02T04:18:48.560Z,12.40
2022-10-02T04:21:29.326Z,12.40
2022-10-02T04:24:02.955Z,12.40
2022-10-02T04:26:36.156Z,12.50
2022-10-02T04:29:12.992Z,12.50
2022-10-02T04:31:42.350Z,12.50
2022-10-02T04:34:14.143Z,12.50
2022-10-02T04:37:03.469Z,12.50
2022-10-02T04:39:46.843Z,12.50
2022-10-02T04:42:24.455Z,12.50
2022-10-02T04:45:08.820Z,12.40
2022-10-02T04:48:11.792Z,12.50
2022-10-02T04:50:47.600Z,12.40
2022-10-02T04:53:26.224Z,12.40
2022-10-02T04:56:19.040Z,12.40
2022-10-02T04:58:59.765Z,12.40
2022-10-02T05:01:41.735Z,12.40
2022-10-02T05:04:38.329Z,12.50
2022-10-02T05:07:26.380Z,12.50
2022-10-02T05:10:03.514Z,12.50
2022-10-02T05:12:53.403Z,12.40
2022-10-02T05:15:45.890Z,12.50
2022-10-02T05:18:36.500Z,12.50
2022-10-02T05:21:28.709Z,12.50
2022-10-02T05:24:18.016Z,12.50
2022-10-02T05:27:09.490Z,12.50
2022-10-02T05:29:58.987Z,12.60
2022-10-02T05:32:50.543Z,12.60
2022-10-02T05:35:31.926Z,12.60
2022-10-02T05:38:12.066Z,12.60
2022-10-02T05:40:47.367Z,12.60
2022-10-02T05:43:22.190Z,12.60
2022-10-02T05:45:54.935Z,12.70
2022-10-02T05:48:28.576Z,12.70
2022-10-02T05:51:00.974Z,12.70
2022-10-02T05:53:36.101Z,12.70
2022-10-02T05:56:07.989Z,12.70
2022-10-02T05:58:40.085Z,12.70
2022-10-02T06:01:15.255Z,12.80
2022-10-02T06:03:49.322Z,12.80
2022-10-02T06:06:19.597Z,12.80
2022-10-02T06:08:54.454Z,12.80
2022-10-02T06:11:28.058Z,12.80
2022-10-02T06:14:01.630Z,12.80
2022-10-02T06:16:34.384Z,12.80
2022-10-02T06:19:10.572Z,12.90
2022-10-02T06:21:44.809Z,12.90
2022-10-02T06:24:21.410Z,12.90
2022-10-02T06:26:56.915Z,13.00
2022-10-02T06:29:32.480Z,13.00
2022-10-02T06:32:11.691Z,13.00
2022-10-02T06:34:39.674Z,13.00
2022-10-02T06:37:23.238Z,13.10
2022-10-02T06:40:12.544Z,13.10
2022-10-02T06:42:52.860Z,13.10
2022-10-02T06:45:32.082Z,13.10
2022-10-02T06:48:14.018Z,13.20
2022-10-02T06:50:45.364Z,13.20
2022-10-02T06:53:39.554Z,13.30
2022-10-02T06:56:25.555Z,13.40
2022-10-02T06:59:04.731Z,13.40
2022-10-02T07:01:42.888Z,13.50
2022-10-02T07:04:29.293Z,13.50
2022-10-02T07:07:13.309Z,13.50
2022-10-02T07:09:56.996Z,13.50
2022-10-02T07:12:40.960Z,13.50
2022-10-02T07:15:26.157Z,13.50
2022-10-02T07:18:06.570Z,13.50
2022-10-02T07:20:39.516Z,13.50
2022-10-02T07:23:36.802Z,13.50
2022-10-02T07:26:26.424Z,13.50
2022-10-02T07:29:03.329Z,13.50
2022-10-02T07:31:46.135Z,13.60
2022-10-02T07:34:27.424Z,13.60
2022-10-02T07:37:06.232Z,13.60
2022-10-02T07:39:46.997Z,13.60
2022-10-02T07:42:28.745Z,13.60
2022-10-02T07:45:33.027Z,13.50
2022-10-02T07:48:24.854Z,13.70
2022-10-02T07:51:04.143Z,13.70
2022-10-02T07:53:39.905Z,13.80
2022-10-02T07:56:11.768Z,13.90
2022-10-02T07:58:42.934Z,13.90
2022-10-02T08:01:20.700Z,14.00
2022-10-02T08:03:53.589Z,14.00
2022-10-02T08:06:21.808Z,14.00
2022-10-02T08:08:54.912Z,14.00
2022-10-02T08:11:28.801Z,14.00
2022-10-02T08:14:00.480Z,14.10
2022-10-02T08:16:36.330Z,14.10
2022-10-02T08:19:13.969Z,14.00
2022-10-02T08:21:46.691Z,14.00
2022-10-02T08:24:18.145Z,14.00
2022-10-02T08:26:52.409Z,14.10
2022-10-02T08:29:23.553Z,14.10
2022-10-02T08:31:54.148Z,14.10
2022-10-02T08:34:24.264Z,14.00
2022-10-02T08:37:07.637Z,14.10
2022-10-02T08:39:54.896Z,14.10
2022-10-02T08:43:15.284Z,14.20
2022-10-02T08:46:24.084Z,14.30
2022-10-02T08:49:26.296Z,14.30
2022-10-02T08:52:31.285Z,14.30
2022-10-02T08:55:44.365Z,14.40
2022-10-02T08:58:57.989Z,14.50
2022-10-02T09:01:57.611Z,14.70
2022-10-02T09:05:06.989Z,14.80
2022-10-02T09:08:09.620Z,14.90
2022-10-02T09:11:16.354Z,15.10
2022-10-02T09:14:11.703Z,15.30
2022-10-02T09:17:10.382Z,15.50
2022-10-02T09:19:48.659Z,15.70
2022-10-02T09:22:40.174Z,15.90
2022-10-02T09:25:31.171Z,16.00
2022-10-02T09:28:51.363Z,16.00
2022-10-02T09:31:46.653Z,16.10
2022-10-02T09:34:39.554Z,16.10
2022-10-02T09:37:38.590Z,16.20
2022-10-02T09:40:33.036Z,16.30
2022-10-02T09:43:17.987Z,16.50
2022-10-02T09:46:15.625Z,16.90
2022-10-02T09:49:21.451Z,17.30
2022-10-02T09:52:18.476Z,17.80
2022-10-02T09:55:15.109Z,18.10
2022-10-02T09:58:23.252Z,18.60
2022-10-02T10:01:10.238Z,19.20
2022-10-02T10:04:13.681Z,19.70
2022-10-02T10:07:20.221Z,19.90
2022-10-02T10:10:27.312Z,20.00
2022-10-02T10:13:18.127Z,20.10
2022-10-02T10:16:23.937Z,20.30
2022-10-02T10:19:24.502Z,20.60
2022-10-02T10:22:12.448Z,20.80
2022-10-02T10:25:11.346Z,21.00
2022-10-02T10:28:06.691Z,21.10
2022-10-02T10:31:16.037Z,21.30
2022-10-02T10:34:12.147Z,21.30
2022-10-02T10:37:16.282Z,21.50
2022-10-02T10:40:19.314Z,21.70
2022-10-02T10:43:16.597Z,21.70
2022-10-02T10:46:07.890Z,21.90
2022-10-02T10:48:59.869Z,21.70
2022-10-02T10:51:35.403Z,21.70
2022-10-02T10:54:33.070Z,21.70
2022-10-02T10:57:08.806Z,21.50
2022-10-02T11:00:02.269Z,21.30
2022-10-02T11:03:09.928Z,20.70
2022-10-02T11:06:13.604Z,20.20
2022-10-02T11:09:26.483Z,19.70
2022-10-02T11:12:25.174Z,19.10
2022-10-02T11:15:06.473Z,18.50
2022-10-02T11:17:57.722Z,18.20
2022-10-02T11:20:51.811Z,18.00
2022-10-02T11:23:37.483Z,18.00
2022-10-02T11:26:27.475Z,17.90
2022-10-02T11:29:18.669Z,17.90
2022-10-02T11:32:02.979Z,18.00
2022-10-02T11:35:00.784Z,18.00
2022-10-02T11:37:48.223Z,18.00
2022-10-02T11:40:34.907Z,17.90
2022-10-02T11:43:22.974Z,17.70
2022-10-02T11:46:14.766Z,17.60
2022-10-02T11:49:02.875Z,17.50
2022-10-02T11:51:55.506Z,17.50
2022-10-02T11:54:36.324Z,17.30
2022-10-02T11:57:17.496Z,17.30
2022-10-02T12:00:06.122Z,17.30
2022-10-02T12:02:47.873Z,17.30
2022-10-02T12:05:27.705Z,17.20
2022-10-02T12:08:03.711Z,17.20
2022-10-02T12:10:46.199Z,17.10
2022-10-02T12:13:48.294Z,17.00
2022-10-02T12:16:25.289Z,16.90
2022-10-02T12:19:06.452Z,16.80
2022-10-02T12:22:07.822Z,16.70
2022-10-02T12:25:02.846Z,16.50
2022-10-02T12:27:44.719Z,16.50
2022-10-02T12:30:15.786Z,16.40
2022-10-02T12:33:10.778Z,16.30
2022-10-02T12:36:18.039Z,16.30
2022-10-02T12:38:59.971Z,16.20
2022-10-02T12:41:47.302Z,16.30
2022-10-02T12:44:33.182Z,16.30
2022-10-02T12:47:41.293Z,16.40
2022-10-02T12:50:23.437Z,16.40
2022-10-02T12:53:24.179Z,16.40
2022-10-02T12:56:37.860Z,16.50
2022-10-02T12:59:13.730Z,16.40
2022-10-02T13:03:00.347Z,16.40
2022-10-02T13:05:52.002Z,16.40
2022-10-02T13:08:26.540Z,16.30
2022-10-02T13:11:06.262Z,16.40
2022-10-02T13:13:58.120Z,16.40
2022-10-02T13:16:54.705Z,16.50
2022-10-02T13:19:30.664Z,16.60
2022-10-02T13:22:10.963Z,16.80
2022-10-02T13:24:52.230Z,16.80
2022-10-02T13:27:33.138Z,16.80
2022-10-02T13:30:15.152Z,16.70
2022-10-02T13:32:59.290Z,16.70
2022-10-02T13:36:00.382Z,16.70
2022-10-02T13:38:46.086Z,16.60
2022-10-02T13:41:22.871Z,16.50
2022-10-02T13:44:03.528Z,16.50
2022-10-02T13:46:46.304Z,16.50
2022-10-02T13:49:22.021Z,16.40
2022-10-02T13:51:57.689Z,16.30
2022-10-02T13:54:50.274Z,16.30
2022-10-02T13:57:34.304Z,16.20
2022-10-02T14:00:11.392Z,16.20
2022-10-02T14:02:49.481Z,16.30
2022-10-02T14:05:29.371Z,16.40
2022-10-02T14:08:24.644Z,16.40
2022-10-02T14:11:05.176Z,16.50
2022-10-02T14:13:44.724Z,16.60
2022-10-02T14:16:30.921Z,16.50
2022-10-02T14:19:24.500Z,16.50
2022-10-02T14:22:06.820Z,16.40
2022-10-02T14:25:04.287Z,16.40
2022-10-02T14:28:20.918Z,16.40
2022-10-02T14:31:01.772Z,16.40
2022-10-02T14:33:47.173Z,16.50
2022-10-02T14:36:26.551Z,16.40
2022-10-02T14:39:09.208Z,16.30
2022-10-02T14:42:01.458Z,16.40
2022-10-02T14:44:57.064Z,16.40
2022-10-02T14:47:50.460Z,16.40
2022-10-02T14:50:36.397Z,16.40
2022-10-02T14:53:34.060Z,16.40
2022-10-02T14:56:38.490Z,16.40
2022-10-02T14:59:23.500Z,16.30
2022-10-02T15:02:02.250Z,16.20
2022-10-02T15:04:42.607Z,16.20
2022-10-02T15:07:13.722Z,16.10
2022-10-02T15:09:59.074Z,16.00
2022-10-02T15:12:34.814Z,15.90
2022-10-02T15:15:16.394Z,15.90
2022-10-02T15:17:56.943Z,15.80
2022-10-02T15:20:31.793Z,15.80
2022-10-02T15:23:01.788Z,15.70
2022-10-02T15:25:52.842Z,15.70
2022-10-02T15:28:36.671Z,15.60
2022-10-02T15:31:17.280Z,15.50
2022-10-02T15:33:50.893Z,15.60
2022-10-02T15:36:45.962Z,15.50
2022-10-02T15:39:35.600Z,15.50
2022-10-02T15:42:08.777Z,15.50
2022-10-02T15:45:11.461Z,15.40
2022-10-02T15:48:00.290Z,15.40
2022-10-02T15:50:44.631Z,15.30
2022-10-02T15:53:47.508Z,15.30
2022-10-02T15:56:30.315Z,15.20
2022-10-02T15:59:15.200Z,15.10
2022-10-02T16:01:54.868Z,15.10
2022-10-02T16:04:31.935Z,15.00
2022-10-02T16:07:36.105Z,14.90
2022-10-02T16:10:18.137Z,14.80
2022-10-02T16:13:11.858Z,14.70
2022-10-02T16:15:52.062Z,14.60
2022-10-02T16:18:37.308Z,14.50
2022-10-02T16:21:34.235Z,14.50
2022-10-02T16:24:20.965Z,14.40
2022-10-02T16:27:30.208Z,14.20
2022-10-02T16:30:11.853Z,14.20
2022-10-02T16:33:11.347Z,14.00
2022-10-02T16:36:15.520Z,14.00
2022-10-02T16:38:49.609Z,13.80
2022-10-02T16:41:38.542Z,13.70
2022-10-02T16:44:32.844Z,13.60
2022-10-02T16:47:10.289Z,13.50
2022-10-02T16:49:50.945Z,13.40
2022-10-02T16:52:24.607Z,13.40
2022-10-02T16:55:00.011Z,13.40
2022-10-02T16:57:50.993Z,13.20
2022-10-02T17:00:25.236Z,13.10
2022-10-02T17:02:57.450Z,13.00
2022-10-02T17:05:34.919Z,13.00
2022-10-02T17:08:08.599Z,12.90
2022-10-02T17:10:55.601Z,12.90
2022-10-02T17:13:33.195Z,12.80
2022-10-02T17:16:11.279Z,12.80
2022-10-02T17:18:47.138Z,12.80
2022-10-02T17:21:22.084Z,12.80
2022-10-02T17:24:15.478Z,12.70
2022-10-02T17:26:49.919Z,12.70
2022-10-02T17:29:23.933Z,12.70
2022-10-02T17:31:54.607Z,12.70
2022-10-02T17:34:25.101Z,12.70
2022-10-02T17:37:04.073Z,12.60
2022-10-02T17:39:51.736Z,12.60
2022-10-02T17:42:34.013Z,12.60
2022-10-02T17:45:16.561Z,12.60
2022-10-02T17:48:10.004Z,12.50
2022-10-02T17:51:50.873Z,12.50
2022-10-02T17:54:58.358Z,12.50
2022-10-02T17:57:43.504Z,12.40
2022-10-02T18:00:17.677Z,12.40
2022-10-02T18:03:10.169Z,12.40
2022-10-02T18:05:51.796Z,12.40
2022-10-02T18:08:35.304Z,12.40
2022-10-02T18:11:10.279Z,12.40
2022-10-02T18:13:59.543Z,12.40
2022-10-02T18:16:40.806Z,12.30
2022-10-02T18:19:27.847Z,12.30
2022-10-02T18:22:23.668Z,12.30
2022-10-02T18:25:14.534Z,12.30
2022-10-02T18:28:05.136Z,12.30
2022-10-02T18:30:43.373Z,12.30
2022-10-02T18:33:45.450Z,12.30
2022-10-02T18:36:26.085Z,12.20
2022-10-02T18:38:59.675Z,12.30
2022-10-02T18:41:52.075Z,12.30
2022-10-02T18:44:45.146Z,12.20
2022-10-02T18:47:24.342Z,12.20
2022-10-02T18:50:10.852Z,12.10
2022-10-02T18:52:54.097Z,12.20
2022-10-02T18:55:53.128Z,12.10
2022-10-02T18:58:55.015Z,12.10
2022-10-02T19:01:40.718Z,12.10
2022-10-02T19:04:36.550Z,12.10
2022-10-02T19:07:10.449Z,12.20
2022-10-02T19:09:38.606Z,12.10
2022-10-02T19:12:16.129Z,12.10
2022-10-02T19:14:47.000Z,12.10
2022-10-02T19:17:22.788Z,12.20
2022-10-02T19:19:51.118Z,12.10
2022-10-02T19:22:22.772Z,12.20
2022-10-02T19:24:53.778Z,12.20
2022-10-02T19:27:30.018Z,12.20
2022-10-02T19:29:59.879Z,12.20
2022-10-02T19:32:32.158Z,12.30
2022-10-02T19:35:07.327Z,12.30
2022-10-02T19:37:42.290Z,12.30
2022-10-02T19:40:17.225Z,12.30
2022-10-02T19:42:49.268Z,12.30
2022-10-02T19:45:25.942Z,12.40
2022-10-02T19:47:58.343Z,12.40
2022-10-02T19:50:31.620Z,12.40
2022-10-02T19:53:02.582Z,12.50
2022-10-02T19:55:34.920Z,12.50
2022-10-02T19:58:07.763Z,12.50
2022-10-02T20:00:43.132Z,12.50
2022-10-02T20:03:18.521Z,12.50
2022-10-02T20:05:49.046Z,12.40
2022-10-02T20:08:20.037Z,12.50
2022-10-02T20:10:57.988Z,12.40
2022-10-02T20:13:32.456Z,12.40
2022-10-02T20:16:28.173Z,12.30
2022-10-02T20:18:57.621Z,12.30
2022-10-02T20:21:33.370Z,12.20
2022-10-02T20:24:05.244Z,12.20
2022-10-02T20:26:38.824Z,12.20
2022-10-02T20:29:12.506Z,12.10
2022-10-02T20:31:47.560Z,12.10
2022-10-02T20:34:24.886Z,12.10
2022-10-02T20:36:59.394Z,12.00
2022-10-02T20:39:32.695Z,12.00
2022-10-02T20:42:04.430Z,11.90
2022-10-02T20:44:36.565Z,11.80
2022-10-02T20:47:49.026Z,11.80
2022-10-02T20:50:34.429Z,11.70
2022-10-02T20:53:40.207Z,11.70
2022-10-02T20:56:17.283Z,11.70
2022-10-02T20:59:06.786Z,11.60
2022-10-02T21:01:46.260Z,11.60
2022-10-02T21:04:50.487Z,11.60
2022-10-02T21:07:35.204Z,11.60
2022-10-02T21:10:31.468Z,11.60
2022-10-02T21:13:34.868Z,11.60
2022-10-02T21:16:29.275Z,11.60
2022-10-02T21:19:27.508Z,11.50
2022-10-02T21:22:24.700Z,11.60
2022-10-02T21:25:56.532Z,11.60
2022-10-02T21:29:04.854Z,11.60
2022-10-02T21:32:01.707Z,11.70
2022-10-02T21:34:42.842Z,11.70
2022-10-02T21:37:22.402Z,11.70
2022-10-02T21:40:13.536Z,11.70
2022-10-02T21:43:28.563Z,11.70
2022-10-02T21:46:23.046Z,11.70
2022-10-02T21:49:42.944Z,11.70
2022-10-02T21:52:40.703Z,11.60
2022-10-02T21:55:51.730Z,11.60
2022-10-02T21:59:10.694Z,11.60
2022-10-02T22:02:18.141Z,11.50
2022-10-02T22:05:31.305Z,11.40
2022-10-02T22:08:12.460Z,11.40
2022-10-02T22:10:49.349Z,11.40
2022-10-02T22:13:25.344Z,11.40
2022-10-02T22:16:08.250Z,11.40
2022-10-02T22:18:46.248Z,11.40
2022-10-02T22:21:35.511Z,11.30
2022-10-02T22:24:24.899Z,11.30
2022-10-02T22:27:12.031Z,11.40
2022-10-02T22:29:47.391Z,11.30
2022-10-02T22:32:52.770Z,11.30
2022-10-02T22:35:31.437Z,11.30
2022-10-02T22:38:13.580Z,11.30
2022-10-02T22:40:46.488Z,11.20
2022-10-02T22:43:24.915Z,11.20
2022-10-02T22:45:59.887Z,11.20
2022-10-02T22:48:36.337Z,11.20
2022-10-02T22:51:15.621Z,11.20
2022-10-02T22:53:50.306Z,11.30
2022-10-02T22:56:26.611Z,11.30
2022-10-02T22:59:07.715Z,11.30
2022-10-02T23:01:44.918Z,11.30
2022-10-02T23:04:22.426Z,11.30
2022-10-02T23:06:56.658Z,11.30
2022-10-02T23:09:30.087Z,11.20
2022-10-02T23:12:07.468Z,11.20
2022-10-02T23:14:42.303Z,11.20
2022-10-02T23:17:16.349Z,11.20
2022-10-02T23:19:48.341Z,11.20
2022-10-02T23:22:25.737Z,11.20
2022-10-02T23:25:01.862Z,11.20
2022-10-02T23:27:42.949Z,11.30
2022-10-02T23:30:13.894Z,11.20
2022-10-02T23:32:48.280Z,11.20
2022-10-02T23:35:25.117Z,11.20
2022-10-02T23:37:59.611Z,11.20
2022-10-02T23:40:49.471Z,11.20
2022-10-02T23:43:24.350Z,11.20
2022-10-02T23:45:59.406Z,11.20
2022-10-02T23:48:28.855Z,11.30
2022-10-02T23:51:15.571Z,11.30
2022-10-02T23:54:06.286Z,11.30
2022-10-02T23:56:52.789Z,11.20
2022-10-02T23:59:41.731Z,11.20
